Latest Weather Observations for Mount Baw Baw

IDV60801

Issued at 10:31 am EDT Friday 6 March 2015 (issued every 30 minutes, with the page automatically refreshed every 10 minutes)

About weather observations | Map of weather stations | Latest weather observations for VIC | Other Formats
Station Details ID: 085291 Name: MOUNT BAW BAW Lat: -37.84 Lon: 146.27 Height: 1561.0 m
Data from the previous 72 hours. | See also: Recent months at Mount Baw Baw
Date/Time
EDT
Temp
°C
App
Temp
°C
Dew
Point
Rel
Hum
%
Delta-T
°C
Wind Press
QNH
hPa
Press
MSL
hPa
Rain
since 9 am
mm
Dir
 
Spd
km/h
Gust
km/h
Spd
kts
Gust
kts
06/10:30am 5.6 -2.8 5.5 99 0.0 SW 39 59 - 32 - - 0.6
06/10:00am 5.4 -2.7 5.3 99 0.0 SW 37 57 - 31 - - 0.2
06/09:30am 5.2 -3.3 5.1 99 0.0 SW 39 63 - 34 - - 0.0
06/09:00am 4.8 -3.8 4.7 99 0.0 SW 39 63 - 34 - - 2.4
06/08:30am 4.5 -4.9 4.4 99 0.0 SW 43 67 - 36 - - 2.2
06/08:00am 4.0 -5.1 3.9 99 0.0 SW 41 61 - 33 - - 2.2
06/07:30am 3.6 -5.2 3.5 99 0.0 SW 39 63 - 34 - - 2.0
06/07:00am 3.5 -5.7 3.4 99 0.0 SW 41 65 - 35 - - 1.8
06/06:30am 3.0 -5.2 2.9 99 0.0 SW 35 59 - 32 - - 1.8
06/06:00am 2.9 -5.3 2.8 99 0.0 SW 35 67 - 36 - - 1.6
06/05:30am 2.8 -5.8 2.7 99 0.0 SW 37 63 - 34 - - 1.6
06/05:09am 2.5 -6.1 2.4 99 0.0 SW 37 80 - 43 - - 1.6
06/05:00am 2.4 -5.3 2.3 99 0.0 SW 32 52 - 28 - - 1.6
06/04:30am 2.2 -6.1 2.1 99 0.0 SW 35 59 - 32 - - 1.6
06/04:00am 2.2 -6.5 2.1 99 0.0 SW 37 61 - 33 - - 1.6
06/03:30am 1.8 -6.6 1.7 99 0.0 SW 35 57 - 31 - - 1.6
06/03:00am 1.6 -6.4 1.5 99 0.0 SW 33 56 - 30 - - 1.6
06/02:30am 1.2 -6.9 1.1 99 0.0 SW 33 52 - 28 - - 1.6
06/02:01am 1.3 -6.6 1.2 99 0.0 SW 32 52 - 28 - - 1.6
06/02:00am 1.3 -6.6 1.2 99 0.0 SW 32 44 - 24 - - 1.6
06/01:30am 1.5 -6.3 1.4 99 0.0 SW 32 54 - 29 - - 1.6
06/01:03am 1.5 -6.3 1.4 99 0.0 SW 32 52 - 28 - - 1.6
06/01:00am 1.4 -6.1 1.3 99 0.0 SW 30 44 - 24 - - 1.6
06/12:35am 1.2 -6.3 1.1 99 0.0 SW 30 50 - 27 - - 1.6
06/12:30am 1.2 -6.7 1.1 99 0.0 SW 32 46 - 25 - - 1.6
06/12:00am 1.2 -6.9 1.1 99 0.0 WSW 33 57 - 31 - - 1.6
 
Date/Time
EDT
Temp
°C
App
Temp
°C
Dew
Point
Rel
Hum
%
Delta-T
°C
Wind Press
QNH
hPa
Press
MSL
hPa
Rain
since 9 am
mm
Dir
 
Spd
km/h
Gust
km/h
Spd
kts
Gust
kts
05/11:30pm 1.3 -6.8 1.2 99 0.0 WSW 33 52 - 28 - - 1.6
05/11:00pm 1.6 -6.2 1.5 99 0.0 SW 32 54 - 29 - - 1.6
05/10:32pm 1.6 -6.2 1.5 99 0.0 WSW 32 50 - 27 - - 1.6
05/10:30pm 1.8 -6.0 1.7 99 0.0 SW 32 48 - 26 - - 1.6
05/10:00pm 1.9 -5.9 1.8 99 0.0 SW 32 52 - 28 - - 1.6
05/09:30pm 2.0 -5.4 1.9 99 0.0 SW 30 52 - 28 - - 1.6
05/09:25pm 2.0 -5.4 1.9 99 0.0 SW 30 52 - 28 - - 1.6
05/09:00pm 1.8 -5.2 1.7 99 0.0 SW 28 43 - 23 - - 1.6
05/08:30pm 1.9 -4.7 1.8 99 0.0 SW 26 37 - 20 - - 1.6
05/08:00pm 2.3 -4.3 2.2 99 0.0 SW 26 37 - 20 - - 1.6
05/07:30pm 2.4 -3.8 2.3 99 0.0 SW 24 37 - 20 - - 1.6
05/07:00pm 2.3 -3.9 2.2 99 0.0 SW 24 41 - 22 - - 1.6
05/06:30pm 2.0 -4.6 1.9 99 0.0 SW 26 39 - 21 - - 1.6
05/06:00pm 2.2 -4.8 2.1 99 0.0 SW 28 43 - 23 - - 1.6
05/05:30pm 2.9 -4.3 2.8 99 0.0 SW 30 44 - 24 - - 1.6
05/05:00pm 2.3 -5.0 2.2 99 0.0 SW 30 52 - 28 - - 1.6
05/04:49pm 2.5 -4.8 2.4 99 0.0 SW 30 48 - 26 - - 1.6
05/04:30pm 2.4 -4.5 2.3 99 0.0 SW 28 44 - 24 - - 1.6
05/04:13pm 3.0 -3.8 2.9 99 0.0 SW 28 46 - 25 - - 1.6
05/04:00pm 2.6 -5.1 2.5 99 0.0 SW 32 46 - 25 - - 1.6
05/03:30pm 3.0 -4.2 2.9 99 0.0 SW 30 48 - 26 - - 1.6
05/03:24pm 2.7 -4.2 2.6 99 0.0 SW 28 48 - 26 - - 1.6
05/03:00pm 2.1 -4.5 2.0 99 0.0 SW 26 37 - 20 - - 1.6
05/02:30pm 2.0 -4.2 1.9 99 0.0 SW 24 41 - 22 - - 1.6
05/02:00pm 1.9 -6.1 1.8 99 0.0 SW 33 56 - 30 - - 1.6
05/01:30pm 1.8 -5.6 1.7 99 0.0 SW 30 57 - 31 - - 1.6
05/01:00pm 1.1 -6.8 1.0 99 0.0 SW 32 50 - 27 - - 1.6
05/12:30pm 0.8 -7.2 0.7 99 0.0 SW 32 54 - 29 - - 1.6
05/12:09pm 0.5 -7.1 0.4 99 0.0 SW 30 50 - 27 - - 1.4
05/12:00pm 0.3 -7.4 0.2 99 0.0 SW 30 44 - 24 - - 1.4
05/11:31am 0.0 -8.1 -0.1 99 0.0 SW 32 52 - 28 - - 1.4
05/11:30am 0.0 -7.7 -0.1 99 0.0 SW 30 46 - 25 - - 1.4
05/11:00am -0.1 -8.8 -0.2 99 0.0 SW 35 61 - 33 - - 1.4
05/10:30am -0.1 -7.8 -0.2 99 0.0 SW 30 54 - 29 - - 0.8
05/10:02am -0.3 -8.6 -0.4 99 0.0 SW 33 52 - 28 - - 0.4
05/10:00am -0.3 -8.6 -0.4 99 0.0 SW 33 50 - 27 - - 0.4
05/09:30am -0.2 -9.3 -0.3 99 0.0 SW 37 65 - 35 - - 0.2
05/09:02am -0.1 -8.4 -0.2 99 0.0 SW 33 52 - 28 - - 0.0
05/09:00am -0.1 -8.4 -0.2 99 0.0 SW 33 48 - 26 - - 9.4
05/08:30am -0.1 -8.8 -0.2 99 0.0 SW 35 57 - 31 - - 9.4
05/08:00am -0.2 -8.9 -0.3 99 0.0 SW 35 63 - 34 - - 9.4
05/07:30am -0.2 -8.9 -0.3 99 0.0 SW 35 57 - 31 - - 9.4
05/07:00am 0.1 -8.9 0.0 99 0.0 SW 37 61 - 33 - - 9.4
05/06:30am 0.7 -9.0 0.6 99 0.0 SW 41 63 - 34 - - 9.4
05/06:00am 1.0 -9.6 0.9 99 0.0 SW 46 76 - 41 - - 9.4
05/05:30am 1.3 -8.7 1.2 99 0.0 SW 43 70 - 38 - - 9.2
05/05:00am 2.1 -8.3 2.0 99 0.0 SW 46 91 - 49 - - 8.6
05/04:54am 2.2 -7.6 2.1 99 0.0 SW 43 91 - 49 - - 7.8
05/04:30am 4.1 -5.4 4.0 99 0.0 WSW 43 67 - 36 - - 3.4
05/04:00am 4.7 -5.2 4.6 99 0.0 WSW 46 76 - 41 - - 2.8
05/03:30am 5.4 -2.7 5.3 99 0.0 WSW 37 61 - 33 - - 0.4
05/03:00am 5.3 -1.9 5.2 99 0.0 WSW 32 50 - 27 - - 0.0
05/02:39am 5.2 -1.2 5.1 99 0.0 WSW 28 54 - 29 - - 0.0
05/02:30am 5.3 -0.7 5.2 99 0.0 WSW 26 48 - 26 - - 0.0
05/02:00am 5.7 -0.6 5.6 99 0.0 WSW 28 46 - 25 - - 0.0
05/01:39am 5.8 -0.5 5.7 99 0.0 WSW 28 48 - 26 - - 0.0
05/01:30am 5.9 0.0 5.8 99 0.0 WSW 26 41 - 22 - - 0.0
05/01:00am 6.3 0.9 6.2 99 0.0 WSW 24 39 - 21 - - 0.0
05/12:30am 6.5 1.5 6.4 99 0.0 WSW 22 35 - 19 - - 0.0
05/12:00am 6.8 2.2 6.7 99 0.1 WSW 20 35 - 19 - - 0.0
 
Date/Time
EDT
Temp
°C
App
Temp
°C
Dew
Point
Rel
Hum
%
Delta-T
°C
Wind Press
QNH
hPa
Press
MSL
hPa
Rain
since 9 am
mm
Dir
 
Spd
km/h
Gust
km/h
Spd
kts
Gust
kts
04/11:30pm 6.9 2.4 6.8 99 0.1 WSW 20 37 - 20 - - 0.0
04/11:00pm 7.1 2.6 7.0 99 0.1 WSW 20 33 - 18 - - 0.0
04/10:30pm 7.1 2.6 6.8 98 0.2 WSW 20 28 - 15 - - 0.0
04/10:00pm 7.5 3.2 6.8 95 0.4 WSW 19 32 - 17 - - 0.0
04/09:30pm 7.8 4.2 6.6 92 0.6 WNW 15 28 - 15 - - 0.0
04/09:00pm 7.8 4.5 6.6 92 0.6 WNW 13 22 - 12 - - 0.0
04/08:30pm 8.2 4.6 6.7 90 0.8 W 15 24 - 13 - - 0.0
04/08:00pm 9.1 6.2 6.5 84 1.3 WSW 11 20 - 11 - - 0.0
04/07:30pm 10.0 6.7 6.5 79 1.8 W 13 22 - 12 - - 0.0
04/07:00pm 10.7 7.5 6.8 77 2.0 W 13 20 - 11 - - 0.0
04/06:30pm 11.4 8.3 7.3 76 2.2 WSW 13 24 - 13 - - 0.0
04/06:00pm 12.0 8.1 7.3 73 2.5 WSW 17 28 - 15 - - 0.0
04/05:30pm 13.5 9.9 6.8 64 3.5 WSW 15 22 - 12 - - 0.0
04/05:00pm 13.6 9.6 6.7 63 3.6 WSW 17 26 - 14 - - 0.0
04/04:30pm 14.4 10.3 4.4 51 5.0 W 15 26 - 14 - - 0.0
04/04:00pm 13.9 9.5 4.8 54 4.6 WSW 17 26 - 14 - - 0.0
04/03:30pm 13.9 9.7 5.8 58 4.2 W 17 28 - 15 - - 0.0
04/03:00pm 13.6 10.3 6.5 62 3.7 WSW 13 24 - 13 - - 0.0
04/02:30pm 13.6 9.6 5.0 56 4.4 W 15 28 - 15 - - 0.0
04/02:00pm 13.7 9.9 3.8 51 4.9 WNW 13 22 - 12 - - 0.0
04/01:30pm 13.1 9.6 3.7 53 4.6 WNW 11 22 - 12 - - 0.0
04/01:00pm 11.7 7.0 1.1 48 4.9 W 15 26 - 14 - - 0.0
04/12:30pm 11.0 7.1 3.5 60 3.6 W 13 22 - 12 - - 0.0
04/12:00pm 10.8 6.7 2.1 55 4.1 WSW 13 20 - 11 - - 0.0
04/11:30am 10.7 5.4 -0.7 45 5.0 WSW 17 28 - 15 - - 0.0
04/11:00am 10.5 4.4 -3.9 36 5.9 W 19 33 - 18 - - 0.0
04/10:30am 9.9 5.0 -3.7 38 5.5 W 13 22 - 12 - - 0.0
04/10:00am 9.3 4.0 -3.3 41 5.1 W 15 24 - 13 - - 0.0
04/09:30am 7.9 2.0 -2.1 49 4.1 WSW 19 24 - 13 - - 0.0
04/09:00am 7.8 1.7 -4.0 43 4.7 W 19 28 - 15 - - 0.0
04/08:30am 7.2 1.4 -4.8 42 4.6 WSW 17 26 - 14 - - 0.0
04/08:00am 6.8 0.7 -4.3 45 4.3 WSW 19 24 - 13 - - 0.0
04/07:30am 6.3 0.2 -3.6 49 3.9 W 19 26 - 14 - - 0.0
04/07:00am 5.9 0.5 -1.7 58 3.1 W 17 26 - 14 - - 0.0
04/06:30am 6.0 0.6 -1.2 60 3.0 W 17 28 - 15 - - 0.0
04/06:00am 5.9 1.1 0.5 68 2.3 W 15 22 - 12 - - 0.0
04/05:30am 6.0 1.6 0.6 68 2.3 W 13 20 - 11 - - 0.0
04/05:00am 6.7 1.4 -0.7 59 3.1 W 17 24 - 13 - - 0.0
04/04:30am 7.1 1.2 -2.6 50 3.9 W 19 26 - 14 - - 0.0
04/04:00am 7.3 1.8 -2.4 50 4.0 WSW 17 22 - 12 - - 0.0
04/03:30am 7.4 1.8 -3.2 47 4.3 W 17 24 - 13 - - 0.0
04/03:00am 7.6 1.8 -5.1 40 4.9 WSW 17 22 - 12 - - 0.0
04/02:30am 7.8 2.0 -4.9 40 4.9 WSW 17 26 - 14 - - 0.0
04/02:00am 7.6 2.7 -0.8 55 3.6 W 15 22 - 12 - - 0.0
04/01:30am 7.6 3.2 0.3 60 3.2 W 13 22 - 12 - - 0.0
04/01:00am 7.2 3.0 1.7 68 2.5 W 13 20 - 11 - - 0.0
04/12:30am 7.0 2.8 1.9 70 2.3 W 13 20 - 11 - - 0.0
04/12:00am 6.4 2.7 4.7 89 0.8 SW 13 17 - 9 - - 0.0
 
Date/Time
EDT
Temp
°C
App
Temp
°C
Dew
Point
Rel
Hum
%
Delta-T
°C
Wind Press
QNH
hPa
Press
MSL
hPa
Rain
since 9 am
mm
Dir
 
Spd
km/h
Gust
km/h
Spd
kts
Gust
kts
03/11:30pm 6.5 3.2 4.5 87 1.0 SW 11 17 - 9 - - 0.0
03/11:00pm 7.0 3.9 5.6 91 0.7 SW 11 15 - 8 - - 0.0
03/10:30pm 7.4 5.0 7.0 97 0.2 SW 9 13 - 7 - - 0.0
03/10:00pm 7.7 5.0 5.8 88 0.9 SW 9 17 - 9 - - 0.0
03/09:30pm 8.0 4.9 5.6 85 1.2 WSW 11 17 - 9 - - 0.0
03/09:00pm 7.4 5.0 7.1 98 0.2 SW 9 13 - 7 - - 0.0
03/08:30pm 8.2 6.1 8.1 99 0.1 S 9 15 - 8 - - 0.0
03/08:00pm 8.9 6.9 8.8 99 0.1 S 9 13 - 7 - - 0.0
03/07:30pm 8.9 6.9 8.8 99 0.1 SSW 9 13 - 7 - - 0.0
03/07:00pm 9.5 7.3 9.2 98 0.2 SSW 11 19 - 10 - - 0.0
03/06:30pm 10.3 8.6 9.7 96 0.3 SSW 9 13 - 7 - - 0.0
03/06:00pm 10.3 8.6 9.8 97 0.3 SSW 9 17 - 9 - - 0.0
03/05:30pm 11.8 9.7 9.9 88 1.1 SSW 11 19 - 10 - - 0.0
03/05:00pm 11.3 8.8 9.7 90 0.9 SSW 13 19 - 10 - - 0.0
03/04:30pm 12.9 10.8 9.7 81 1.8 SW 11 17 - 9 - - 0.0
03/04:00pm 13.3 11.1 10.7 84 1.5 SSW 13 20 - 11 - - 0.0
03/03:30pm 12.2 9.7 9.8 85 1.3 SSW 13 17 - 9 - - 0.0
03/03:00pm 11.8 9.4 10.0 89 1.0 SSW 13 20 - 11 - - 0.0
03/02:30pm 12.8 10.7 9.8 82 1.7 S 11 17 - 9 - - 0.0
03/02:00pm 13.3 10.7 6.2 62 3.7 SSW 9 15 - 8 - - 0.0
03/01:30pm 14.0 12.2 9.6 75 2.5 SSW 9 19 - 10 - - 0.0
03/01:00pm 13.7 10.1 3.2 49 5.1 SSW 11 19 - 10 - - 0.0
03/12:30pm 13.5 10.4 3.6 51 4.9 SSW 9 13 - 7 - - 0.0
03/12:00pm 14.6 12.1 4.9 52 4.9 S 7 13 - 7 - - 0.0
03/11:30am 13.4 10.6 2.9 49 5.1 SSW 7 13 - 7 - - 0.0
03/11:00am 13.0 10.3 0.4 42 5.8 SE 4 7 - 4 - - 0.0

Other Formats:

Comma delimited format used in spreadsheet applications
http://www.bom.gov.au/fwo/IDV60801/IDV60801.95901.axf

JavaScript Object Notation format (JSON) in row-major order
http://www.bom.gov.au/fwo/IDV60801/IDV60801.95901.json